createdAt,value
2022-10-05T00:01:39.975Z,90.17
2022-10-05T00:04:15.680Z,90.17
2022-10-05T00:06:44.860Z,90.22
2022-10-05T00:09:23.682Z,90.01
2022-10-05T00:11:51.298Z,90.10
2022-10-05T00:14:27.838Z,90.33
2022-10-05T00:16:56.119Z,90.49
2022-10-05T00:19:30.998Z,90.33
2022-10-05T00:22:12.099Z,90.37
2022-10-05T00:24:38.825Z,90.47
2022-10-05T00:27:23.412Z,90.32
2022-10-05T00:29:52.168Z,90.58
2022-10-05T00:32:18.816Z,90.40
2022-10-05T00:34:46.838Z,90.63
2022-10-05T00:37:13.942Z,90.77
2022-10-05T00:39:41.927Z,90.74
2022-10-05T00:42:11.630Z,91.01
2022-10-05T00:45:07.033Z,90.89
2022-10-05T00:47:42.732Z,91.10
2022-10-05T00:50:21.465Z,90.97
2022-10-05T00:52:50.888Z,91.22
2022-10-05T00:55:52.732Z,91.20
2022-10-05T00:58:37.818Z,91.17
2022-10-05T01:01:33.245Z,91.15
2022-10-05T01:04:10.071Z,91.03
2022-10-05T01:06:52.828Z,90.96
2022-10-05T01:09:25.015Z,91.16
2022-10-05T01:11:57.980Z,91.25
2022-10-05T01:15:00.906Z,91.09
2022-10-05T01:17:52.703Z,91.37
2022-10-05T01:20:43.573Z,91.50
2022-10-05T01:23:24.885Z,91.34
2022-10-05T01:26:19.514Z,91.37
2022-10-05T01:29:12.178Z,91.32
2022-10-05T01:31:49.959Z,91.49
2022-10-05T01:34:27.053Z,91.64
2022-10-05T01:36:56.746Z,91.48
2022-10-05T01:39:54.895Z,91.46
2022-10-05T01:42:46.142Z,91.73
2022-10-05T01:45:39.111Z,91.96
2022-10-05T01:48:42.182Z,91.97
2022-10-05T01:51:39.603Z,92.03
2022-10-05T01:54:31.907Z,92.16
2022-10-05T01:57:21.209Z,92.30
2022-10-05T02:00:08.675Z,92.42
2022-10-05T02:02:40.383Z,92.67
2022-10-05T02:05:21.501Z,92.93
2022-10-05T02:08:09.649Z,92.95
2022-10-05T02:10:49.542Z,93.04
2022-10-05T02:13:22.306Z,93.21
2022-10-05T02:15:56.643Z,93.16
2022-10-05T02:18:32.801Z,93.34
2022-10-05T02:21:01.923Z,93.38
2022-10-05T02:23:33.755Z,93.22
2022-10-05T02:26:01.603Z,93.20
2022-10-05T02:28:34.932Z,93.29
2022-10-05T02:31:09.596Z,93.36
2022-10-05T02:33:36.699Z,93.17
2022-10-05T02:36:25.311Z,93.20
2022-10-05T02:39:02.972Z,93.22
2022-10-05T02:41:30.411Z,93.50
2022-10-05T02:44:15.195Z,93.60
2022-10-05T02:46:57.027Z,93.59
2022-10-05T02:49:32.580Z,93.69
2022-10-05T02:52:14.829Z,93.58
2022-10-05T02:55:01.449Z,93.69
2022-10-05T02:57:36.894Z,93.78
2022-10-05T03:00:15.164Z,93.94
2022-10-05T03:02:47.660Z,94.08
2022-10-05T03:05:42.302Z,94.06
2022-10-05T03:08:21.518Z,93.99
2022-10-05T03:11:04.643Z,94.15
2022-10-05T03:14:01.720Z,94.10
2022-10-05T03:16:47.794Z,94.11
2022-10-05T03:19:17.465Z,94.17
2022-10-05T03:21:56.016Z,94.10
2022-10-05T03:24:22.656Z,93.95
2022-10-05T03:27:17.174Z,93.58
2022-10-05T03:30:08.832Z,93.42
2022-10-05T03:33:06.761Z,93.35
2022-10-05T03:35:49.472Z,93.29
2022-10-05T03:38:45.425Z,93.14
2022-10-05T03:41:23.374Z,93.13
2022-10-05T03:44:02.318Z,93.18
2022-10-05T03:46:55.996Z,93.11
2022-10-05T03:49:28.875Z,93.20
2022-10-05T03:52:23.060Z,93.25
2022-10-05T03:54:57.223Z,93.18
2022-10-05T03:57:27.184Z,93.19
2022-10-05T04:00:12.893Z,93.10
2022-10-05T04:03:08.055Z,93.21
2022-10-05T04:05:56.879Z,93.02
2022-10-05T04:08:35.280Z,93.20
2022-10-05T04:11:09.736Z,93.11
2022-10-05T04:13:42.862Z,93.15
2022-10-05T04:16:18.297Z,93.22
2022-10-05T04:18:58.015Z,93.19
2022-10-05T04:21:35.259Z,93.25
2022-10-05T04:24:10.663Z,93.36
2022-10-05T04:26:40.371Z,93.47
2022-10-05T04:29:28.675Z,93.60
2022-10-05T04:32:18.219Z,93.74
2022-10-05T04:34:58.030Z,93.66
2022-10-05T04:37:32.394Z,93.74
2022-10-05T04:40:36.874Z,93.59
2022-10-05T04:43:18.333Z,93.43
2022-10-05T04:46:17.873Z,93.28
2022-10-05T04:49:22.421Z,93.13
2022-10-05T04:51:58.293Z,93.02
2022-10-05T04:55:04.798Z,92.93
2022-10-05T04:57:41.939Z,92.80
2022-10-05T05:00:21.119Z,92.64
2022-10-05T05:02:56.993Z,92.49
2022-10-05T05:05:23.658Z,92.62
2022-10-05T05:08:02.318Z,92.58
2022-10-05T05:10:50.175Z,92.41
2022-10-05T05:13:34.805Z,92.46
2022-10-05T05:16:08.381Z,92.30
2022-10-05T05:19:02.211Z,92.12
2022-10-05T05:21:43.672Z,92.09
2022-10-05T05:24:12.948Z,92.19
2022-10-05T05:27:14.566Z,91.93
2022-10-05T05:29:50.733Z,91.92
2022-10-05T05:32:39.094Z,91.98
2022-10-05T05:35:34.994Z,91.97
2022-10-05T05:38:19.685Z,91.89
2022-10-05T05:40:54.799Z,91.96
2022-10-05T05:43:27.859Z,91.89
2022-10-05T05:46:01.198Z,91.68
2022-10-05T05:48:37.852Z,91.62
2022-10-05T05:51:10.950Z,91.74
2022-10-05T05:53:41.996Z,91.61
2022-10-05T05:56:12.698Z,91.54
2022-10-05T05:59:04.391Z,91.51
2022-10-05T06:01:38.496Z,91.56
2022-10-05T06:04:16.048Z,91.58
2022-10-05T06:06:48.170Z,91.46
2022-10-05T06:09:29.845Z,91.33
2022-10-05T06:12:07.575Z,91.15
2022-10-05T06:14:43.054Z,91.17
2022-10-05T06:17:18.694Z,91.08
2022-10-05T06:19:48.758Z,90.95
2022-10-05T06:22:18.370Z,90.82
2022-10-05T06:25:29.794Z,90.57
2022-10-05T06:28:13.686Z,90.50
2022-10-05T06:33:52.238Z,90.28
2022-10-05T06:36:57.224Z,90.14
2022-10-05T06:39:33.103Z,89.92
2022-10-05T06:42:31.770Z,89.78
2022-10-05T06:45:05.273Z,89.66
2022-10-05T06:47:59.466Z,89.36
2022-10-05T06:50:41.273Z,89.13
2022-10-05T06:53:13.444Z,88.98
2022-10-05T06:55:51.313Z,88.74
2022-10-05T06:58:39.497Z,88.72
2022-10-05T07:01:23.948Z,88.49
2022-10-05T07:03:59.055Z,88.32
2022-10-05T07:06:54.361Z,88.13
2022-10-05T07:09:23.807Z,87.99
2022-10-05T07:12:03.855Z,87.81
2022-10-05T07:14:37.353Z,87.51
2022-10-05T07:17:14.033Z,87.43
2022-10-05T07:20:01.089Z,87.35
2022-10-05T07:22:49.163Z,87.08
2022-10-05T07:25:21.221Z,87.12
2022-10-05T07:28:02.825Z,86.95
2022-10-05T07:30:37.368Z,86.84
2022-10-05T07:33:13.190Z,86.71
2022-10-05T07:36:02.664Z,86.70
2022-10-05T07:38:33.334Z,86.75
2022-10-05T07:41:08.373Z,86.59
2022-10-05T07:44:02.877Z,86.53
2022-10-05T07:46:43.723Z,86.38
2022-10-05T07:49:40.524Z,86.27
2022-10-05T07:52:16.486Z,86.11
2022-10-05T07:55:10.814Z,86.09
2022-10-05T07:57:43.351Z,85.87
2022-10-05T08:00:17.984Z,85.96
2022-10-05T08:02:52.305Z,85.84
2022-10-05T08:05:30.890Z,85.87
2022-10-05T08:08:07.012Z,85.86
2022-10-05T08:10:38.843Z,85.88
2022-10-05T08:13:48.377Z,85.43
2022-10-05T08:16:16.834Z,85.53
2022-10-05T08:19:08.483Z,85.42
2022-10-05T08:21:50.527Z,85.25
2022-10-05T08:24:48.494Z,84.92
2022-10-05T08:27:25.502Z,85.08
2022-10-05T08:30:12.868Z,85.04
2022-10-05T08:32:51.763Z,84.88
2022-10-05T08:35:35.458Z,84.69
2022-10-05T08:38:14.845Z,84.57
2022-10-05T08:40:47.284Z,84.43
2022-10-05T08:43:17.096Z,84.29
2022-10-05T08:45:55.549Z,84.14
2022-10-05T08:48:34.389Z,83.91
2022-10-05T08:51:07.077Z,83.84
2022-10-05T08:54:07.726Z,83.65
2022-10-05T08:56:56.067Z,83.58
2022-10-05T08:59:45.693Z,83.07
2022-10-05T09:02:27.922Z,82.99
2022-10-05T09:05:11.576Z,82.87
2022-10-05T09:08:06.110Z,82.75
2022-10-05T09:10:51.386Z,82.42
2022-10-05T09:13:27.058Z,82.25
2022-10-05T09:16:12.139Z,81.86
2022-10-05T09:19:16.139Z,81.48
2022-10-05T09:21:49.412Z,81.02
2022-10-05T09:24:48.713Z,80.51
2022-10-05T09:27:20.347Z,80.20
2022-10-05T09:30:14.800Z,79.89
2022-10-05T09:33:30.152Z,79.46
2022-10-05T09:36:08.939Z,79.10
2022-10-05T09:38:56.994Z,78.21
2022-10-05T09:41:38.613Z,77.30
2022-10-05T09:44:18.889Z,75.57
2022-10-05T09:46:51.432Z,74.96
2022-10-05T09:50:00.704Z,73.56
2022-10-05T09:52:42.773Z,71.20
2022-10-05T09:55:51.272Z,70.53
2022-10-05T09:58:39.532Z,71.24
2022-10-05T10:01:46.564Z,72.94
2022-10-05T10:04:26.002Z,73.95
2022-10-05T10:07:33.935Z,74.58
2022-10-05T10:10:33.909Z,74.26
2022-10-05T10:13:06.493Z,73.22
2022-10-05T10:15:52.602Z,72.13
2022-10-05T10:18:38.064Z,72.01
2022-10-05T10:21:42.558Z,71.91
2022-10-05T10:24:48.674Z,72.59
2022-10-05T10:27:33.319Z,72.14
2022-10-05T10:30:31.045Z,71.24
2022-10-05T10:33:19.591Z,71.20
2022-10-05T10:36:06.258Z,72.41
2022-10-05T10:38:41.413Z,72.38
2022-10-05T10:41:33.259Z,72.12
2022-10-05T10:44:58.933Z,70.07
2022-10-05T10:47:37.731Z,66.88
2022-10-05T10:50:41.134Z,65.40
2022-10-05T10:53:31.430Z,65.37
2022-10-05T10:56:31.288Z,64.26
2022-10-05T10:59:26.656Z,63.12
2022-10-05T11:02:13.707Z,63.11
2022-10-05T11:04:59.018Z,61.68
2022-10-05T11:07:58.222Z,61.72
2022-10-05T11:10:29.254Z,60.23
2022-10-05T11:13:07.741Z,60.83
2022-10-05T11:16:01.929Z,61.94
2022-10-05T11:18:49.848Z,62.36
2022-10-05T11:21:37.783Z,62.45
2022-10-05T11:24:26.304Z,60.75
2022-10-05T11:27:08.421Z,60.21
2022-10-05T11:30:02.627Z,60.40
2022-10-05T11:32:51.121Z,60.90
2022-10-05T11:35:50.292Z,60.70
2022-10-05T11:38:35.384Z,60.30
2022-10-05T11:41:33.850Z,58.87
2022-10-05T11:44:35.938Z,58.53
2022-10-05T11:47:21.744Z,55.81
2022-10-05T11:50:05.562Z,57.22
2022-10-05T11:52:52.478Z,57.15
2022-10-05T11:55:38.964Z,57.38
2022-10-05T11:58:11.265Z,57.84
2022-10-05T12:00:46.574Z,57.06
2022-10-05T12:03:32.077Z,56.44
2022-10-05T12:06:04.269Z,56.28
2022-10-05T12:08:43.946Z,56.45
2022-10-05T12:11:28.884Z,56.37
2022-10-05T12:14:07.369Z,55.14
2022-10-05T12:16:43.783Z,54.47
2022-10-05T12:19:29.855Z,56.67
2022-10-05T12:22:09.937Z,55.93
2022-10-05T12:24:36.402Z,55.06
2022-10-05T12:27:11.180Z,55.71
2022-10-05T12:29:58.640Z,56.21
2022-10-05T12:32:50.278Z,56.21
2022-10-05T12:35:47.083Z,56.47
2022-10-05T12:38:34.574Z,56.48
2022-10-05T12:41:13.023Z,56.05
2022-10-05T12:43:54.577Z,57.27
2022-10-05T12:46:31.911Z,57.57
2022-10-05T12:49:44.091Z,57.16
2022-10-05T12:52:23.952Z,57.04
2022-10-05T12:55:01.442Z,57.15
2022-10-05T12:57:42.919Z,56.87
2022-10-05T13:00:20.294Z,55.96
2022-10-05T13:03:03.159Z,57.33
2022-10-05T13:05:52.576Z,57.46
2022-10-05T13:08:31.334Z,56.85
2022-10-05T13:11:15.032Z,56.38
2022-10-05T13:13:56.177Z,57.37
2022-10-05T13:16:41.839Z,57.72
2022-10-05T13:19:44.647Z,56.97
2022-10-05T13:22:17.044Z,56.88
2022-10-05T13:24:49.366Z,56.94
2022-10-05T13:27:24.711Z,57.55
2022-10-05T13:30:16.148Z,57.73
2022-10-05T13:32:57.123Z,57.98
2022-10-05T13:35:44.883Z,57.19
2022-10-05T13:38:34.503Z,57.46
2022-10-05T13:41:20.549Z,58.24
2022-10-05T13:44:09.021Z,59.04
2022-10-05T13:46:45.389Z,58.32
2022-10-05T13:49:36.872Z,59.43
2022-10-05T13:52:16.114Z,58.87
2022-10-05T13:55:12.772Z,58.26
2022-10-05T13:57:55.140Z,57.80
2022-10-05T14:00:26.560Z,57.02
2022-10-05T14:02:56.649Z,58.03
2022-10-05T14:05:28.528Z,58.07
2022-10-05T14:08:10.202Z,58.16
2022-10-05T14:10:37.531Z,57.88
2022-10-05T14:13:22.624Z,57.97
2022-10-05T14:16:21.714Z,58.07
2022-10-05T14:19:14.361Z,57.73
2022-10-05T14:21:52.449Z,58.53
2022-10-05T14:24:43.705Z,59.06
2022-10-05T14:27:22.957Z,59.59
2022-10-05T14:29:57.809Z,60.14
2022-10-05T14:32:25.672Z,59.26
2022-10-05T14:35:10.474Z,60.18
2022-10-05T14:37:56.175Z,59.69
2022-10-05T14:40:34.986Z,58.74
2022-10-05T14:43:13.842Z,58.68
2022-10-05T14:45:54.795Z,57.73
2022-10-05T14:48:22.190Z,58.23
2022-10-05T14:50:54.988Z,58.21
2022-10-05T14:53:25.014Z,58.04
2022-10-05T14:59:29.286Z,58.69
2022-10-05T15:02:03.543Z,58.23
2022-10-05T15:04:47.315Z,58.93
2022-10-05T15:10:26.432Z,58.53
2022-10-05T15:12:55.426Z,59.24
2022-10-05T15:15:25.474Z,59.35
2022-10-05T15:17:59.448Z,59.02
2022-10-05T15:20:45.814Z,59.93
2022-10-05T15:23:12.245Z,59.55
2022-10-05T15:25:58.493Z,59.75
2022-10-05T15:28:54.552Z,60.27
2022-10-05T15:31:59.611Z,60.01
2022-10-05T15:34:49.067Z,60.71
2022-10-05T15:37:18.464Z,59.89
2022-10-05T15:39:50.203Z,60.25
2022-10-05T15:42:22.546Z,60.73
2022-10-05T15:45:05.444Z,61.53
2022-10-05T15:47:46.520Z,61.54
2022-10-05T15:50:26.293Z,63.11
2022-10-05T15:53:02.934Z,63.51
2022-10-05T15:55:56.956Z,64.14
2022-10-05T15:58:46.636Z,66.18
2022-10-05T16:01:20.559Z,66.50
2022-10-05T16:04:07.886Z,66.71
2022-10-05T16:09:56.540Z,67.65
2022-10-05T16:12:35.166Z,68.04
2022-10-05T16:15:29.837Z,68.45
2022-10-05T16:18:45.722Z,69.15
2022-10-05T16:21:25.519Z,69.27
2022-10-05T16:23:58.045Z,69.43
2022-10-05T16:26:24.480Z,69.59
2022-10-05T16:29:07.862Z,69.58
2022-10-05T16:31:58.003Z,69.66
2022-10-05T16:34:56.281Z,69.94
2022-10-05T16:37:25.685Z,69.78
2022-10-05T16:40:14.472Z,69.90
2022-10-05T16:43:09.528Z,70.08
2022-10-05T16:45:45.017Z,70.27
2022-10-05T16:48:28.866Z,69.84
2022-10-05T16:51:32.584Z,69.77
2022-10-05T16:54:28.027Z,69.39
2022-10-05T16:57:06.817Z,68.78
2022-10-05T17:00:08.854Z,68.04
2022-10-05T17:03:11.786Z,67.30
2022-10-05T17:05:41.409Z,66.80
2022-10-05T17:08:36.772Z,66.54
2022-10-05T17:11:21.917Z,66.75
2022-10-05T17:14:22.653Z,66.49
2022-10-05T17:17:03.324Z,66.55
2022-10-05T17:20:08.474Z,66.55
2022-10-05T17:22:46.553Z,66.82
2022-10-05T17:25:27.718Z,66.69
2022-10-05T17:28:20.101Z,67.60
2022-10-05T17:30:56.219Z,69.14
2022-10-05T17:33:31.294Z,70.03
2022-10-05T17:36:08.593Z,70.45
2022-10-05T17:38:35.072Z,70.73
2022-10-05T17:41:18.683Z,71.12
2022-10-05T17:44:06.995Z,71.22
2022-10-05T17:46:39.193Z,71.45
2022-10-05T17:49:38.796Z,71.41
2022-10-05T17:52:40.210Z,71.10
2022-10-05T17:58:54.637Z,71.47
2022-10-05T18:01:38.649Z,71.66
2022-10-05T18:04:14.161Z,71.80
2022-10-05T18:06:51.985Z,71.69
2022-10-05T18:09:28.391Z,71.50
2022-10-05T18:12:16.631Z,71.31
2022-10-05T18:15:12.924Z,71.35
2022-10-05T18:17:56.191Z,71.11
2022-10-05T18:20:31.748Z,70.76
2022-10-05T18:23:07.454Z,70.71
2022-10-05T18:25:43.143Z,70.70
2022-10-05T18:28:12.770Z,70.60
2022-10-05T18:30:59.155Z,70.87
2022-10-05T18:33:37.305Z,70.28
2022-10-05T18:36:37.847Z,70.43
2022-10-05T18:39:23.209Z,70.13
2022-10-05T18:42:27.234Z,70.23
2022-10-05T18:45:01.356Z,70.02
2022-10-05T18:47:43.454Z,70.09
2022-10-05T18:50:21.820Z,70.14
2022-10-05T18:53:12.690Z,69.71
2022-10-05T18:55:54.944Z,69.25
2022-10-05T18:58:32.553Z,69.45
2022-10-05T19:01:47.565Z,69.17
2022-10-05T19:04:25.722Z,69.29
2022-10-05T19:07:12.933Z,69.52
2022-10-05T19:10:11.903Z,68.98
2022-10-05T19:13:02.334Z,68.80
2022-10-05T19:15:35.760Z,69.19
2022-10-05T19:18:11.482Z,69.42
2022-10-05T19:21:04.152Z,70.20
2022-10-05T19:23:49.302Z,70.28
2022-10-05T19:26:21.506Z,70.17
2022-10-05T19:29:00.060Z,70.06
2022-10-05T19:31:41.051Z,69.93
2022-10-05T19:34:54.310Z,69.93
2022-10-05T19:37:53.103Z,70.15
2022-10-05T19:40:26.550Z,70.37
2022-10-05T19:43:19.081Z,70.46
2022-10-05T19:46:16.246Z,70.58
2022-10-05T19:48:50.103Z,70.57
2022-10-05T19:51:32.614Z,70.43
2022-10-05T19:54:02.710Z,70.80
2022-10-05T19:56:33.961Z,70.83
2022-10-05T19:59:18.796Z,71.04
2022-10-05T20:01:51.722Z,71.02
2022-10-05T20:04:31.791Z,70.60
2022-10-05T20:06:59.386Z,70.89
2022-10-05T20:09:26.263Z,70.93
2022-10-05T20:11:53.607Z,71.24
2022-10-05T20:14:32.274Z,70.62
2022-10-05T20:17:44.139Z,70.96
2022-10-05T20:20:36.137Z,70.63
2022-10-05T20:23:18.710Z,70.85
2022-10-05T20:26:05.327Z,70.95
2022-10-05T20:28:33.609Z,70.91
2022-10-05T20:31:00.391Z,70.71
2022-10-05T20:33:27.906Z,70.64
2022-10-05T20:35:55.899Z,70.76
2022-10-05T20:38:24.087Z,70.71
2022-10-05T20:40:50.830Z,71.07
2022-10-05T20:43:17.637Z,71.05
2022-10-05T20:45:44.615Z,71.11
2022-10-05T20:48:12.014Z,71.05
2022-10-05T20:50:39.585Z,71.16
2022-10-05T20:53:11.741Z,71.04
2022-10-05T20:55:38.549Z,70.79
2022-10-05T20:58:08.977Z,70.72
2022-10-05T21:00:54.352Z,70.80
2022-10-05T21:03:21.067Z,70.89
2022-10-05T21:05:48.196Z,70.86
2022-10-05T21:08:15.299Z,71.04
2022-10-05T21:10:41.800Z,70.99
2022-10-05T21:13:09.383Z,70.86
2022-10-05T21:15:35.994Z,71.23
2022-10-05T21:18:02.728Z,71.08
2022-10-05T21:20:29.303Z,71.08
2022-10-05T21:22:55.963Z,71.22
2022-10-05T21:25:22.616Z,71.32
2022-10-05T21:27:50.343Z,71.31
2022-10-05T21:30:17.027Z,71.50
2022-10-05T21:32:44.844Z,71.56
2022-10-05T21:35:13.077Z,71.81
2022-10-05T21:37:39.913Z,71.98
2022-10-05T21:40:06.809Z,71.97
2022-10-05T21:42:33.611Z,72.00
2022-10-05T21:45:00.346Z,72.06
2022-10-05T21:47:27.012Z,71.99
2022-10-05T21:49:54.273Z,72.14
2022-10-05T21:52:21.429Z,72.32
2022-10-05T21:54:48.302Z,72.04
2022-10-05T21:57:15.654Z,72.29
2022-10-05T21:59:43.014Z,72.25
2022-10-05T22:02:09.584Z,72.24
2022-10-05T22:04:36.210Z,72.12
2022-10-05T22:07:10.624Z,72.37
2022-10-05T22:09:37.170Z,72.30
2022-10-05T22:12:03.835Z,72.85
2022-10-05T22:14:30.561Z,73.23
2022-10-05T22:16:57.142Z,74.18
2022-10-05T22:19:23.819Z,74.97
2022-10-05T22:21:50.616Z,76.16
2022-10-05T22:24:17.303Z,76.03
2022-10-05T22:26:46.738Z,77.58
2022-10-05T22:29:15.846Z,79.34
2022-10-05T22:31:42.598Z,80.92
2022-10-05T22:34:09.208Z,82.35
2022-10-05T22:36:36.282Z,83.48
2022-10-05T22:39:03.801Z,84.80
2022-10-05T22:41:30.395Z,85.33
2022-10-05T22:43:56.961Z,85.01
2022-10-05T22:46:23.619Z,85.21
2022-10-05T22:48:50.214Z,85.79
2022-10-05T22:51:16.980Z,86.54
2022-10-05T22:53:43.578Z,86.10
2022-10-05T22:56:12.635Z,85.71
2022-10-05T22:58:40.598Z,85.92
2022-10-05T23:01:09.752Z,85.36
2022-10-05T23:03:36.566Z,85.49
2022-10-05T23:06:06.945Z,84.88
2022-10-05T23:08:35.217Z,84.31
2022-10-05T23:11:03.985Z,84.30
2022-10-05T23:13:31.371Z,84.19
2022-10-05T23:15:58.357Z,84.09
2022-10-05T23:18:25.995Z,83.23
2022-10-05T23:20:55.912Z,82.40
2022-10-05T23:23:23.476Z,82.28
2022-10-05T23:25:50.190Z,81.91
2022-10-05T23:28:17.087Z,81.38
2022-10-05T23:30:43.960Z,80.90
2022-10-05T23:33:10.952Z,81.22
2022-10-05T23:35:37.800Z,80.94
2022-10-05T23:38:04.898Z,80.63
2022-10-05T23:40:31.612Z,80.77
2022-10-05T23:42:58.526Z,80.90
2022-10-05T23:45:25.245Z,81.42
2022-10-05T23:47:51.910Z,81.72
2022-10-05T23:50:20.570Z,82.16
2022-10-05T23:52:47.227Z,82.93
2022-10-05T23:55:13.919Z,83.78
